Data for 08/26/2010

Time Sea-Level Adjusted Pressure Absolute Pressure Temperature Relative Humidity Dew Point   
(mb) (inHg) (mb) (inHg) (C) (F) (%) (C) (F)
00:05 1021 30.15 850 25.1 17.4 63.2 35 1.8 35.2
00:10 1021 30.15 850 25.1 17 62.7 36 2.1 35.8
00:15 1021 30.15 850 25.1 17 62.6 35 1.4 34.5
00:20 1021 30.15 850 25.1 17.5 63.4 33 1.3 34.4
00:25 1021 30.15 850 25.1 17.5 63.5 33 1.2 34.2
00:30 1021 30.15 850 25.1 17.3 63.1 33 1.1 34
00:35 1021 30.15 850 25.1 17.4 63.3 31 0.3 32.5
00:40 1021 30.15 850 25.1 18.4 65 27 -0.7 30.8
00:45 1021 30.15 850 25.1 19.1 66.4 28 0.1 32.2
00:50 1021 30.15 850 25.1 18.8 65.8 29 0.5 33
00:55 1021 30.15 850 25.1 18 64.4 32 1.1 34
01:00 1021 30.15 850 25.1 17.2 63 35 1.6 34.8
01:05 1021 30.15 850 25.1 16.5 61.7 36 1.6 34.9
01:10 1021 30.15 850 25.1 16.2 61.1 34 0.5 33
01:15 1021 30.15 850 25.1 16.3 61.4 34 0.6 33
01:20 1021 30.15 850 25.1 16.5 61.7 36 1.6 34.9
01:25 1021 30.15 850 25.1 16.3 61.3 34 0.3 32.6
01:30 1021 30.15 850 25.1 16.6 61.9 37 2 35.7
01:35 1021 30.15 850 25.1 16.4 61.5 37 1.8 35.2
01:40 1021 30.15 850 25.1 16.2 61.2 38 2 35.7
01:45 1021 30.15 850 25.1 16.5 61.6 34 0.7 33.2
01:50 1021 30.15 850 25.1 16.9 62.4 30 -0.6 30.9
01:55 1021 30.15 850 25.1 17.3 63.1 32 0.5 32.9
02:00 1021 30.15 850 25.1 17 62.6 30 -0.4 31.2
02:05 1021 30.15 850 25.1 17.3 63.1 30 -0.3 31.5
02:10 1021 30.15 850 25.1 17.2 62.9 31 -0 31.9
02:15 1021 30.15 850 25.1 16.8 62.2 33 0.5 32.9
02:20 1021 30.15 850 25.1 16.3 61.4 35 0.9 33.7
02:25 1021 30.15 850 25.1 16.5 61.6 32 -0.2 31.7
02:30 1021 30.15 850 25.1 16.4 61.4 33 0 32
02:35 1021 30.15 850 25.1 16.4 61.5 32 -0.2 31.6
02:40 1020 30.12 850 25.1 16.6 61.8 32 -0.2 31.6
02:45 1021 30.15 850 25.1 16.7 62 36 1.5 34.7
02:50 1021 30.15 850 25.1 16.3 61.4 34 0.5 32.9
02:55 1020 30.12 850 25.1 15.8 60.5 33 -0.3 31.5
03:00 1021 30.15 850 25.1 16.2 61.1 34 0.4 32.8
03:05 1021 30.15 850 25.1 16 60.8 34 0.2 32.3
03:10 1020 30.12 850 25.1 16.2 61.2 35 0.8 33.4
03:15 1020 30.12 850 25.1 16.6 61.9 33 0.2 32.4
03:20 1020 30.12 850 25.1 16.4 61.6 37 1.7 35.1
03:25 1020 30.12 850 25.1 15.6 60.1 33 -0.6 31
03:30 1020 30.12 850 25.1 15.9 60.6 36 1.1 33.9
03:35 1020 30.12 850 25.1 15.4 59.7 33 -0.5 31.1
03:40 1020 30.12 850 25.1 16.2 61.2 32 -0.3 31.4
03:45 1020 30.12 850 25.1 16.5 61.6 32 0 32
03:50 1020 30.12 850 25.1 16.3 61.4 31 -0.8 30.5
03:55 1020 30.12 850 25.1 16.5 61.7 32 -0 32
04:00 1020 30.12 850 25.1 15.9 60.6 34 -0 32
04:05 1020 30.12 850 25.1 15.7 60.3 34 -0.1 31.9
04:10 1020 30.12 850 25.1 15.9 60.6 33 -0.3 31.4
04:15 1020 30.12 850 25.1 15.9 60.7 34 0.1 32.1
04:20 1020 30.12 850 25.1 15.5 59.9 32 -0.8 30.5
04:25 1020 30.12 850 25.1 15.8 60.4 32 -0.6 30.9
04:30 1020 30.12 850 25.1 15.8 60.5 32 -0.7 30.8
04:35 1020 30.12 850 25.1 15.9 60.7 33 -0.3 31.5
04:40 1020 30.12 850 25.1 15.7 60.2 33 -0.4 31.4
04:45 1020 30.12 850 25.1 15.1 59.2 35 -0.1 31.9
04:50 1020 30.12 850 25.1 14.8 58.6 36 -0.1 31.9
04:55 1020 30.12 850 25.1 14.7 58.4 37 0.4 32.6
05:00 1020 30.12 850 25.1 14.5 58.2 38 0.5 32.9
05:05 1020 30.12 850 25.1 14.4 57.8 37 -0 32
05:10 1020 30.12 850 25.1 14.4 58 37 0.1 32.1
05:15 1020 30.12 850 25.1 14.3 57.7 36 -0.5 31.1
05:20 1020 30.12 850 25.1 14.5 58.1 35 -0.8 30.6
05:25 1020 30.12 850 25.1 14.7 58.4 36 -0.3 31.5
05:30 1020 30.12 849 25.07 14.4 57.9 36 -0.3 31.4
05:35 1020 30.12 849 25.07 14.4 57.9 36 -0.6 31
05:40 1020 30.12 849 25.07 14.5 58.1 35 -0.5 31
05:45 1020 30.12 849 25.07 14.5 58.2 36 -0.2 31.6
05:50 1020 30.12 849 25.07 14.4 57.9 36 -0.3 31.5
05:55 1020 30.12 849 25.07 14.5 58 35 -0.7 30.7
06:00 1020 30.12 849 25.07 14.5 58.1 34 -1.2 29.8
06:05 1020 30.12 850 25.1 14.8 58.7 33 -1.1 30
06:10 1020 30.12 850 25.1 15 58.9 33 -1.1 30
06:15 1020 30.12 850 25.1 15.3 59.5 31 -1.6 29.1
06:20 1020 30.12 850 25.1 15.3 59.5 33 -0.7 30.7
06:25 1020 30.12 850 25.1 14.6 58.3 36 -0.4 31.3
06:30 1020 30.12 850 25.1 13.8 56.8 41 1 33.8
06:35 1020 30.12 850 25.1 13.3 55.9 43 1 33.7
06:40 1020 30.12 850 25.1 12.7 54.8 43 0.6 33.2
06:45 1020 30.12 850 25.1 12.8 55 42 0.2 32.3
06:50 1020 30.12 850 25.1 13.1 55.7 40 -0 32
06:55 1020 30.12 850 25.1 13.4 56.2 40 0.1 32.1
07:00 1020 30.12 849 25.07 13.1 55.6 42 0.5 33
07:05 1020 30.12 849 25.07 13.4 56.1 37 -1 30.2
07:10 1020 30.12 849 25.07 14 57.1 35 -1.2 29.9
07:15 1020 30.12 849 25.07 14.3 57.7 35 -0.9 30.4
07:20 1020 30.12 849 25.07 14 57.2 39 0.2 32.4
07:25 1020 30.12 849 25.07 13.7 56.6 37 -0.6 30.9
07:30 1020 30.12 849 25.07 14.1 57.4 36 -0.8 30.6
07:35 1020 30.12 849 25.07 14.2 57.6 38 0.2 32.3
07:40 1020 30.12 849 25.07 14.2 57.5 38 0.3 32.5
07:45 1020 30.12 849 25.07 14.3 57.7 38 0.2 32.4
07:50 1020 30.12 849 25.07 14.7 58.4 36 -0.2 31.6
07:55 1020 30.12 849 25.07 15 59 35 -0.3 31.5
08:00 1020 30.12 849 25.07 15.3 59.6 33 -0.5 31
08:05 1020 30.12 849 25.07 15.8 60.5 34 0.1 32.2
08:10 1020 30.12 849 25.07 16.3 61.3 35 0.7 33.2
08:15 1020 30.12 849 25.07 16.4 61.5 34 0.4 32.8
08:20 1020 30.12 850 25.1 16.8 62.3 32 0 32
08:25 1020 30.12 850 25.1 17.5 63.5 34 1.6 34.8
08:30 1020 30.12 850 25.1 18 64.5 28 -0.5 31.1
08:35 1020 30.12 850 25.1 18.4 65.1 28 -0.1 31.8
08:40 1020 30.12 850 25.1 18.8 65.8 30 1.1 34.1
08:45 1020 30.12 850 25.1 19.1 66.4 32 2.4 36.3
08:50 1020 30.12 850 25.1 19.7 67.4 32 2.9 37.2
08:55 1020 30.12 850 25.1 20 68.1 28 0.9 33.6
09:00 1020 30.12 850 25.1 20.3 68.6 28 1.5 34.8
09:05 1020 30.12 850 25.1 20.8 69.5 28 1.7 35.1
09:10 1020 30.12 850 25.1 21.2 70.2 27 1.6 34.9
09:15 1020 30.12 850 25.1 21.1 70 28 2.1 35.8
09:20 1020 30.12 850 25.1 21.4 70.6 27 2 35.5
09:25 1020 30.12 850 25.1 22 71.6 27 2.5 36.4
09:30 1020 30.12 849 25.07 21.7 71 29 2.8 37.1
09:35 1020 30.12 849 25.07 22.1 71.8 25 1.4 34.6
09:40 1020 30.12 849 25.07 22.5 72.6 25 1.6 34.8
09:45 1020 30.12 849 25.07 22.6 72.6 24 0.9 33.7
09:50 1020 30.12 849 25.07 23.1 73.5 23 1.1 34.1
09:55 1020 30.12 849 25.07 23.2 73.7 25 2.2 35.9
10:00 1020 30.12 849 25.07 23.5 74.2 28 3.9 39
10:05 1020 30.12 849 25.07 23.7 74.6 25 2.8 37.1
10:10 1020 30.12 849 25.07 24 75.2 25 2.9 37.2
10:15 1020 30.12 849 25.07 24.5 76 25 3.7 38.6
10:20 1020 30.12 849 25.07 24.8 76.7 23 2.8 37
10:25 1020 30.12 849 25.07 24.8 76.7 25 3.5 38.3
10:30 1020 30.12 849 25.07 24.9 76.7 25 4 39.2
10:35 1020 30.12 849 25.07 25.5 77.8 23 2.9 37.2
10:40 1020 30.12 849 25.07 25.9 78.6 23 3.4 38.2
10:45 1020 30.12 849 25.07 26.3 79.3 22 3.3 37.9
10:50 1020 30.12 849 25.07 26.7 80.1 23 4.2 39.5
10:55 1020 30.12 849 25.07 26.7 80.1 22 3.5 38.4
11:00 1019 30.09 849 25.07 27.2 80.9 22 3.7 38.6
11:05 1019 30.09 849 25.07 27.2 80.9 21 3.4 38.1
11:10 1019 30.09 849 25.07 26.9 80.4 22 3.8 38.8
11:15 1019 30.09 849 25.07 26.7 80 22 3.8 38.8
11:20 1019 30.09 848 25.04 27 80.5 23 4.1 39.3
11:25 1019 30.09 848 25.04 26.7 80.1 23 4.4 39.8
11:30 1019 30.09 848 25.04 27.3 81.2 21 3.3 37.9
11:35 1019 30.09 848 25.04 28 82.4 21 3.8 38.8
11:40 1019 30.09 848 25.04 28.6 83.5 20 3.7 38.7
11:45 1019 30.09 848 25.04 28.3 83 19 3.1 37.6
11:50 1019 30.09 848 25.04 29.1 84.4 18 2.5 36.4
11:55 1019 30.09 848 25.04 29.6 85.2 17 2.4 36.3
12:00 1019 30.09 848 25.04 30.1 86.2 17 2.7 36.8
12:05 1019 30.09 848 25.04 30.3 86.6 17 3.2 37.8
12:10 1019 30.09 848 25.04 29.7 85.4 18 3.2 37.8
12:15 1018 30.06 848 25.04 30.1 86.2 18 3.4 38
12:20 1018 30.06 848 25.04 31.2 88.2 16 2.5 36.5
12:25 1018 30.06 848 25.04 31.2 88.1 16 2.6 36.6
12:30 1018 30.06 847 25.01 31.8 89.2 16 3 37.5
12:35 1018 30.06 847 25.01 32.5 90.5 15 2.8 37.1
12:40 1018 30.06 847 25.01 32.7 90.8 15 3.2 37.8
12:45 1018 30.06 847 25.01 33.2 91.8 13 1.4 34.6
12:50 1018 30.06 847 25.01 32.8 91 14 2.5 36.5
12:55 1018 30.06 847 25.01 32.6 90.8 14 1.6 34.9
13:00 1018 30.06 847 25.01 32.5 90.5 15 2.7 36.9
13:05 1018 30.06 847 25.01 32.6 90.7 13 1.5 34.6
13:10 1018 30.06 847 25.01 32.8 91.1 13 0.9 33.5
13:15 1017 30.03 847 25.01 33.3 91.9 13 1.6 34.9
13:20 1017 30.03 847 25.01 33.1 91.5 13 1.2 34.2
13:25 1017 30.03 846 24.98 32.9 91.3 10 -1.7 28.9
13:30 1017 30.03 846 24.98 33.4 92.2 9 -3.3 26
13:35 1017 30.03 846 24.98 32.8 91 9 -4 24.8
13:40 1017 30.03 846 24.98 32.6 90.8 9 -4 24.9
13:45 1017 30.03 846 24.98 32.5 90.5 10 -3.3 26
13:50 1017 30.03 846 24.98 32.5 90.5 9 -4 24.7
13:55 1017 30.03 846 24.98 32.9 91.1 9 -3.2 26.2
14:00 1017 30.03 846 24.98 32.7 90.9 9 -3.9 24.9
14:05 1016 30 846 24.98 32.7 90.9 9 -3.7 25.4
14:10 1016 30 846 24.98 32.8 91 9 -4.6 23.7
14:15 1016 30 845 24.95 32.8 91 9 -4.5 23.9
14:20 1016 30 845 24.95 32.8 91 8 -5.7 21.7
14:25 1016 30 845 24.95 33.1 91.6 9 -3.7 25.3
14:30 1016 30 845 24.95 33.2 91.7 9 -3.8 25.2
14:35 1016 30 845 24.95 33.3 91.9 9 -3.4 25.8
14:40 1016 30 845 24.95 32.9 91.2 9 -3.6 25.5
14:45 1016 30 845 24.95 32.7 90.9 9 -3.8 25.1
14:50 1016 30 845 24.95 32.8 91 9 -3.3 26
14:55 1016 30 845 24.95 32.8 91.1 9 -4.6 23.8
15:00 1016 30 845 24.95 32.8 91 10 -3 26.5
15:05 1016 30 845 24.95 32.8 91 8 -4.7 23.6
15:10 1016 30 845 24.95 32.7 90.9 9 -3.2 26.2
15:15 1016 30 845 24.95 32.7 90.8 8 -4.8 23.4
15:20 1016 30 845 24.95 33.1 91.6 9 -3.4 25.8
15:25 1015 29.97 845 24.95 33.3 92 9 -3.9 25
15:30 1015 29.97 845 24.95 33.1 91.7 8 -4.5 23.9
15:35 1015 29.97 845 24.95 33.4 92 9 -3.9 24.9
15:40 1015 29.97 844 24.92 33.3 91.9 9 -3.5 25.8
15:45 1015 29.97 844 24.92 33.2 91.8 9 -4.2 24.5
15:50 1015 29.97 844 24.92 33.3 92 9 -4.2 24.5
15:55 1015 29.97 844 24.92 33.4 92.1 8 -4.6 23.7
16:00 1015 29.97 844 24.92 33.2 91.8 8 -4.5 23.9
16:05 1015 29.97 844 24.92 33.2 91.7 10 -2.7 27.1
16:10 1015 29.97 844 24.92 33.7 92.6 9 -3.4 25.8
16:15 1015 29.97 844 24.92 33.7 92.7 8 -3.9 24.9
16:20 1015 29.97 844 24.92 33.7 92.7 10 -2.3 27.9
16:25 1015 29.97 844 24.92 33.4 92.1 9 -3.6 25.4
16:30 1014 29.94 844 24.92 33.3 92 8 -4.7 23.6
16:35 1014 29.94 844 24.92 33.2 91.7 9 -4.2 24.5
16:40 1014 29.94 844 24.92 32.9 91.2 11 -1.6 29.2
16:45 1014 29.94 843 24.89 32.4 90.3 10 -2.2 28
16:50 1014 29.94 843 24.89 32.8 91 11 -1.4 29.4
16:55 1014 29.94 843 24.89 32.9 91.2 9 -4.5 23.9
17:00 1014 29.94 843 24.89 33.1 91.5 9 -3.8 25.2
17:05 1014 29.94 843 24.89 33.3 92 10 -2.5 27.6
17:10 1014 29.94 843 24.89 33.4 92 10 -2.5 27.5
17:15 1014 29.94 843 24.89 33.4 92.2 10 -1.7 29
17:20 1014 29.94 843 24.89 32.8 91.1 8 -4.8 23.3
17:25 1014 29.94 843 24.89 32.7 90.9 10 -3 26.7
17:30 1014 29.94 843 24.89 32.6 90.6 11 -1.6 29.1
17:35 1014 29.94 843 24.89 32.8 91 10 -2.2 28
17:40 1014 29.94 843 24.89 32.7 90.9 11 -1.6 29.2
17:45 1014 29.94 843 24.89 32.5 90.6 11 -1.7 28.9
17:50 1013 29.91 843 24.89 32.3 90.2 11 -1.9 28.5
17:55 1013 29.91 843 24.89 32.4 90.4 11 -1.4 29.5
18:00 1013 29.91 843 24.89 32.5 90.5 11 -1.6 29.1
18:05 1013 29.91 843 24.89 32.5 90.4 10 -2.1 28.2
18:10 1013 29.91 842 24.86 32.4 90.3 10 -2.7 27.2
18:15 1013 29.91 842 24.86 32 89.7 11 -2.3 27.9
18:20 1013 29.91 842 24.86 31.8 89.3 10 -3.8 25.2
18:25 1013 29.91 842 24.86 31.8 89.2 10 -2.9 26.8
18:30 1013 29.91 842 24.86 31.7 89 10 -2.8 27
18:35 1013 29.91 842 24.86 31.4 88.6 11 -1.9 28.7
18:40 1013 29.91 842 24.86 31 87.9 12 -1.1 30.1
18:45 1013 29.91 842 24.86 30.8 87.5 11 -2.2 28
18:50 1013 29.91 842 24.86 30.8 87.4 12 -1 30.1
18:55 1013 29.91 842 24.86 30.7 87.2 11 -2.2 28
19:00 1013 29.91 842 24.86 30.6 87 11 -2.4 27.7
19:05 1013 29.91 842 24.86 30.4 86.6 12 -1.5 29.3
19:10 1013 29.91 842 24.86 29.9 85.8 13 -1.1 29.9
19:15 1013 29.91 842 24.86 29.7 85.5 13 -1.6 29.1
19:20 1013 29.91 842 24.86 29.6 85.4 13 -1.7 29
19:25 1013 29.91 842 24.86 29.3 84.8 12 -2.2 28
19:30 1012 29.88 842 24.86 29.4 84.9 13 -1.9 28.6
19:35 1012 29.88 842 24.86 29.2 84.5 14 -1.2 29.9
19:40 1012 29.88 842 24.86 28.6 83.5 13 -1.8 28.8
19:45 1012 29.88 842 24.86 28.7 83.6 13 -1.8 28.7
19:50 1012 29.88 841 24.83 28.3 83 14 -1.5 29.2
19:55 1012 29.88 841 24.83 28.2 82.8 13 -2.3 27.8
20:00 1012 29.88 841 24.83 28.3 83 14 -1.9 28.6
20:05 1012 29.88 841 24.83 28.3 83 13 -2.5 27.6
20:10 1012 29.88 841 24.83 28.8 83.9 13 -2.1 28.2
20:15 1012 29.88 841 24.83 28.7 83.7 14 -1.2 29.8
20:20 1012 29.88 841 24.83 28.6 83.4 14 -1.6 29.2
20:25 1012 29.88 841 24.83 27.9 82.2 18 1.8 35.3
20:30 1012 29.88 841 24.83 27.3 81.2 15 -1.7 28.9
20:35 1012 29.88 841 24.83 27.2 80.9 15 -1.4 29.6
20:40 1012 29.88 841 24.83 26.7 80 15 -1.6 29.1
20:45 1012 29.88 841 24.83 26.6 79.9 16 -1.3 29.7
20:50 1012 29.88 841 24.83 26.5 79.6 17 -0.6 30.9
20:55 1012 29.88 841 24.83 26.2 79.2 17 -0.7 30.7
21:00 1012 29.88 841 24.83 26 78.9 19 0.7 33.3
21:05 1012 29.88 841 24.83 25.6 78.2 18 0 32
21:10 1012 29.88 841 24.83 25.4 77.7 18 -0.7 30.7
21:15 1012 29.88 841 24.83 25.6 78 17 -0.8 30.6
21:20 1012 29.88 841 24.83 25.5 77.8 17 -0.9 30.4
21:25 1012 29.88 841 24.83 25.2 77.4 18 -0.5 31.1
21:30 1011 29.85 841 24.83 25.3 77.6 18 -0.1 31.8
21:35 1011 29.85 841 24.83 25.5 77.8 18 -0.3 31.5
21:40 1011 29.85 841 24.83 25.5 77.8 17 -1.1 30
21:45 1012 29.88 841 24.83 25.8 78.4 19 0.4 32.7
21:50 1012 29.88 841 24.83 25 77 21 1.6 34.8
21:55 1012 29.88 841 24.83 24.5 76.1 22 1.3 34.4
22:00 1012 29.88 841 24.83 24.7 76.4 23 2.2 35.9
22:05 1012 29.88 841 24.83 24.6 76.2 21 1.3 34.4
22:10 1012 29.88 841 24.83 24.5 76.2 22 1.9 35.4
22:15 1012 29.88 841 24.83 24.5 76 22 1.8 35.2
22:20 1012 29.88 841 24.83 24.4 75.9 23 2.2 36
22:25 1012 29.88 841 24.83 24.4 75.9 26 3.9 39
22:30 1012 29.88 841 24.83 23.3 73.9 25 2.4 36.4
22:35 1012 29.88 841 24.83 23.4 74.1 25 2.3 36.1
22:40 1012 29.88 841 24.83 23 73.3 29 4 39.2
22:45 1012 29.88 841 24.83 21.9 71.4 28 2.7 36.9
22:50 1012 29.88 841 24.83 22.3 72.1 28 3 37.5
22:55 1012 29.88 841 24.83 21.9 71.4 30 3.5 38.4
23:00 1012 29.88 841 24.83 22.2 71.9 28 2.9 37.2
23:05 1011 29.85 841 24.83 22.3 72.1 29 3.5 38.4
23:10 1011 29.85 841 24.83 22 71.5 31 4.1 39.5
23:15 1012 29.88 841 24.83 21.8 71.3 29 3.2 37.7
23:20 1011 29.85 841 24.83 21.6 70.9 31 3.7 38.7
23:25 1011 29.85 841 24.83 21.5 70.6 33 4.9 40.8
23:30 1012 29.88 841 24.83 21.3 70.3 30 3.2 37.8
23:35 1011 29.85 841 24.83 21 69.8 30 3.1 37.5
23:40 1011 29.85 841 24.83 20.5 68.9 33 3.9 39
23:45 1011 29.85 841 24.83 20 67.9 35 4.2 39.5
23:50 1011 29.85 840 24.81 20 68.1 32 3.1 37.6
23:55 1011 29.85 841 24.83 20.6 69 33 3.7 38.7
24:00 1012 29.88 841 24.83 20.9 69.6 31 3.1 37.7